X  Schlie├čen METAR Luftfahrt Wetterdaten     EDDH Hamburg Helmut Schmidt Airport
Temperatur
28°C Temperatur
12°C Taupunkt
37% Feuchtigkeit



Wind
19 KM/S
12 MPS
5 M/S
10 KTS



70°
ONO
Aktuelle Wetterlage

Klar Klar
Luftdruck 1021.92 (hPa) - 30.18 (inHg)
Sichtweite 6.2 (Meile) - 10 (Km)
Flughafen
Flughafen Code EDDH

Position : Hamburg Helmut Schmidt Airport
Entfernung: 11 (Km)

Metar:
EDDH 111650Z AUTO 07010KT 030V100 CAVOK 28/12 Q1022 NOSIG

Zeit: 11-08-2022 18:50 CEST